Fort Frances, Canada
Current Conditions -  °F | °C
As of 11:16 PM on Friday 19 Dec 2014 (Local Time) from KINL Reporting Station
Light Snow Light Snow  
Wind Chill: 17°   Ceiling: 4800
Heat Index: 24°   Visibility: 3mi
Dew Point: 21°   Wind: 6mph
Humidity: 88%   Direction: 140°SE
Pressure: 30.08"   Gusts: NA
Location:  48.61°N, 93.39°W
Report Text: KINL 200516Z AUTO 14005KT 3SM -SN BR SCT028 SCT034 OVC048 M04/M06 A3008 RMK AO2 P0000 T10441061
Loading
Personal Weather Stations






























Interactive Weather Map New forecast layout! Learn more

10-Day Weather Forecast

Advertisements
Track Severe Weather on mobile